sensor_id;sensor_type;location;lat;lon;timestamp;pressure;altitude;pressure_sealevel;temperature;humidity
52693;BME280;68218;51.012;-1.648;2023-05-24T00:00:09;101723.50;;;10.90;76.57
52693;BME280;68218;51.012;-1.648;2023-05-24T00:02:38;101720.84;;;11.02;76.48
52693;BME280;68218;51.012;-1.648;2023-05-24T00:05:09;101723.41;;;10.97;76.91
52693;BME280;68218;51.012;-1.648;2023-05-24T00:07:38;101723.25;;;10.92;76.88
52693;BME280;68218;51.012;-1.648;2023-05-24T00:10:04;101725.97;;;10.92;77.37
52693;BME280;68218;51.012;-1.648;2023-05-24T00:12:30;101728.03;;;10.90;77.45
52693;BME280;68218;51.012;-1.648;2023-05-24T00:14:56;101727.97;;;10.78;78.35
52693;BME280;68218;51.012;-1.648;2023-05-24T00:17:21;101717.81;;;10.80;78.02
52693;BME280;68218;51.012;-1.648;2023-05-24T00:19:47;101719.88;;;10.78;78.10
52693;BME280;68218;51.012;-1.648;2023-05-24T00:22:12;101713.38;;;10.67;79.02
52693;BME280;68218;51.012;-1.648;2023-05-24T00:24:38;101721.63;;;10.72;77.82
52693;BME280;68218;51.012;-1.648;2023-05-24T00:27:04;101714.75;;;10.76;78.69
52693;BME280;68218;51.012;-1.648;2023-05-24T00:29:30;101707.19;;;10.66;79.12
52693;BME280;68218;51.012;-1.648;2023-05-24T00:31:55;101706.38;;;10.66;78.57
52693;BME280;68218;51.012;-1.648;2023-05-24T00:34:20;101707.25;;;10.60;78.92
52693;BME280;68218;51.012;-1.648;2023-05-24T00:36:46;101703.69;;;10.47;79.59
52693;BME280;68218;51.012;-1.648;2023-05-24T00:39:11;101704.19;;;10.38;80.13
52693;BME280;68218;51.012;-1.648;2023-05-24T00:41:37;101697.91;;;10.44;79.89
52693;BME280;68218;51.012;-1.648;2023-05-24T00:44:02;101702.94;;;10.40;80.24
52693;BME280;68218;51.012;-1.648;2023-05-24T00:46:30;101714.97;;;10.38;80.46
52693;BME280;68218;51.012;-1.648;2023-05-24T00:48:56;101701.16;;;10.27;80.09
52693;BME280;68218;51.012;-1.648;2023-05-24T00:51:23;101715.72;;;10.26;80.30
52693;BME280;68218;51.012;-1.648;2023-05-24T00:53:50;101704.22;;;10.31;80.50
52693;BME280;68218;51.012;-1.648;2023-05-24T00:56:16;101709.22;;;9.90;81.78
52693;BME280;68218;51.012;-1.648;2023-05-24T00:58:42;101708.56;;;9.70;82.46
52693;BME280;68218;51.012;-1.648;2023-05-24T01:01:08;101703.88;;;9.84;82.05
52693;BME280;68218;51.012;-1.648;2023-05-24T01:03:34;101700.97;;;9.85;81.44
52693;BME280;68218;51.012;-1.648;2023-05-24T01:06:02;101694.25;;;9.94;80.79
52693;BME280;68218;51.012;-1.648;2023-05-24T01:08:41;101696.66;;;10.03;80.92
52693;BME280;68218;51.012;-1.648;2023-05-24T01:14:18;101692.03;;;10.10;80.33
52693;BME280;68218;51.012;-1.648;2023-05-24T01:16:55;101692.31;;;10.20;79.55
52693;BME280;68218;51.012;-1.648;2023-05-24T01:22:23;101697.53;;;9.97;81.07
52693;BME280;68218;51.012;-1.648;2023-05-24T01:27:46;101693.97;;;10.03;80.32
52693;BME280;68218;51.012;-1.648;2023-05-24T01:30:12;101699.06;;;10.11;80.01
52693;BME280;68218;51.012;-1.648;2023-05-24T01:32:38;101699.66;;;10.13;80.40
52693;BME280;68218;51.012;-1.648;2023-05-24T01:35:04;101698.97;;;10.18;80.03
52693;BME280;68218;51.012;-1.648;2023-05-24T01:37:30;101694.56;;;10.23;79.92
52693;BME280;68218;51.012;-1.648;2023-05-24T01:39:55;101701.38;;;10.26;80.27
52693;BME280;68218;51.012;-1.648;2023-05-24T01:42:26;101698.03;;;10.30;79.49
52693;BME280;68218;51.012;-1.648;2023-05-24T01:45:05;101703.31;;;10.44;78.92
52693;BME280;68218;51.012;-1.648;2023-05-24T01:48:05;101695.72;;;10.53;78.31
52693;BME280;68218;51.012;-1.648;2023-05-24T01:50:45;101695.34;;;10.49;79.21
52693;BME280;68218;51.012;-1.648;2023-05-24T01:53:17;101697.91;;;10.44;79.56
52693;BME280;68218;51.012;-1.648;2023-05-24T01:55:43;101701.53;;;10.31;80.25
52693;BME280;68218;51.012;-1.648;2023-05-24T01:58:12;101699.28;;;10.28;79.81
52693;BME280;68218;51.012;-1.648;2023-05-24T02:00:38;101690.16;;;10.29;79.51
52693;BME280;68218;51.012;-1.648;2023-05-24T02:03:05;101691.38;;;10.33;79.78
52693;BME280;68218;51.012;-1.648;2023-05-24T02:05:31;101687.19;;;10.37;80.19
52693;BME280;68218;51.012;-1.648;2023-05-24T02:07:57;101686.59;;;10.35;80.39
52693;BME280;68218;51.012;-1.648;2023-05-24T02:10:22;101685.75;;;10.35;80.12
52693;BME280;68218;51.012;-1.648;2023-05-24T02:12:48;101685.16;;;10.33;80.66
52693;BME280;68218;51.012;-1.648;2023-05-24T02:15:13;101683.34;;;10.26;81.33
52693;BME280;68218;51.012;-1.648;2023-05-24T02:17:40;101682.72;;;10.24;81.17
52693;BME280;68218;51.012;-1.648;2023-05-24T02:20:07;101681.75;;;10.19;81.54
52693;BME280;68218;51.012;-1.648;2023-05-24T02:22:32;101688.19;;;10.18;81.51
52693;BME280;68218;51.012;-1.648;2023-05-24T02:24:58;101685.06;;;10.21;80.66
52693;BME280;68218;51.012;-1.648;2023-05-24T02:27:23;101685.28;;;10.19;80.87
52693;BME280;68218;51.012;-1.648;2023-05-24T02:29:49;101694.28;;;10.13;81.31
52693;BME280;68218;51.012;-1.648;2023-05-24T02:32:14;101682.44;;;10.14;81.11
52693;BME280;68218;51.012;-1.648;2023-05-24T02:34:40;101682.44;;;10.14;81.05
52693;BME280;68218;51.012;-1.648;2023-05-24T02:37:07;101676.59;;;10.17;80.86
52693;BME280;68218;51.012;-1.648;2023-05-24T02:39:32;101683.09;;;10.28;80.29
52693;BME280;68218;51.012;-1.648;2023-05-24T02:41:57;101671.06;;;10.30;80.27
52693;BME280;68218;51.012;-1.648;2023-05-24T02:44:23;101669.34;;;10.36;79.50
52693;BME280;68218;51.012;-1.648;2023-05-24T02:46:48;101672.94;;;10.48;79.35
52693;BME280;68218;51.012;-1.648;2023-05-24T02:49:14;101677.50;;;10.48;80.03
52693;BME280;68218;51.012;-1.648;2023-05-24T02:51:39;101679.03;;;10.44;79.48
52693;BME280;68218;51.012;-1.648;2023-05-24T02:54:05;101678.28;;;10.37;79.40
52693;BME280;68218;51.012;-1.648;2023-05-24T02:56:30;101676.78;;;10.41;78.99
52693;BME280;68218;51.012;-1.648;2023-05-24T02:58:56;101675.78;;;10.54;78.26
52693;BME280;68218;51.012;-1.648;2023-05-24T03:01:21;101677.88;;;10.52;77.93
52693;BME280;68218;51.012;-1.648;2023-05-24T03:03:47;101674.38;;;10.51;77.78
52693;BME280;68218;51.012;-1.648;2023-05-24T03:06:12;101678.72;;;10.52;77.69
52693;BME280;68218;51.012;-1.648;2023-05-24T03:08:39;101681.03;;;10.48;77.81
52693;BME280;68218;51.012;-1.648;2023-05-24T03:11:05;101675.63;;;10.48;77.79
52693;BME280;68218;51.012;-1.648;2023-05-24T03:13:30;101667.41;;;10.43;78.19
52693;BME280;68218;51.012;-1.648;2023-05-24T03:15:56;101671.44;;;10.53;77.56
52693;BME280;68218;51.012;-1.648;2023-05-24T03:18:21;101674.97;;;10.53;77.20
52693;BME280;68218;51.012;-1.648;2023-05-24T03:20:47;101668.97;;;10.51;77.97
52693;BME280;68218;51.012;-1.648;2023-05-24T03:23:12;101671.44;;;10.53;77.82
52693;BME280;68218;51.012;-1.648;2023-05-24T03:25:39;101669.88;;;10.45;77.84
52693;BME280;68218;51.012;-1.648;2023-05-24T03:28:04;101664.09;;;10.41;76.29
52693;BME280;68218;51.012;-1.648;2023-05-24T03:30:30;101668.97;;;10.51;75.59
52693;BME280;68218;51.012;-1.648;2023-05-24T03:32:55;101671.31;;;10.47;77.56
52693;BME280;68218;51.012;-1.648;2023-05-24T03:35:20;101671.09;;;10.49;77.05
52693;BME280;68218;51.012;-1.648;2023-05-24T03:37:46;101663.44;;;10.46;75.88
52693;BME280;68218;51.012;-1.648;2023-05-24T03:40:11;101666.50;;;10.49;75.69
52693;BME280;68218;51.012;-1.648;2023-05-24T03:42:37;101661.91;;;10.50;76.43
52693;BME280;68218;51.012;-1.648;2023-05-24T03:45:03;101669.88;;;10.45;75.87
52693;BME280;68218;51.012;-1.648;2023-05-24T03:47:29;101668.38;;;10.49;75.78
52693;BME280;68218;51.012;-1.648;2023-05-24T03:49:55;101662.25;;;10.42;74.41
52693;BME280;68218;51.012;-1.648;2023-05-24T03:52:20;101675.88;;;10.47;75.85
52693;BME280;68218;51.012;-1.648;2023-05-24T03:54:45;101669.66;;;10.46;75.75
52693;BME280;68218;51.012;-1.648;2023-05-24T03:57:11;101670.66;;;10.34;74.37
52693;BME280;68218;51.012;-1.648;2023-05-24T03:59:37;101672.19;;;10.41;73.87
52693;BME280;68218;51.012;-1.648;2023-05-24T04:02:02;101670.56;;;10.40;73.55
52693;BME280;68218;51.012;-1.648;2023-05-24T04:04:28;101677.81;;;10.40;73.64
52693;BME280;68218;51.012;-1.648;2023-05-24T04:06:53;101681.34;;;10.40;73.59
52693;BME280;68218;51.012;-1.648;2023-05-24T04:09:21;101682.63;;;10.38;74.08
52693;BME280;68218;51.012;-1.648;2023-05-24T04:11:46;101672.94;;;10.30;74.16
52693;BME280;68218;51.012;-1.648;2023-05-24T04:14:12;101688.66;;;10.15;75.18
52693;BME280;68218;51.012;-1.648;2023-05-24T04:16:37;101690.56;;;10.07;75.48
52693;BME280;68218;51.012;-1.648;2023-05-24T04:19:04;101699.94;;;10.05;75.13
52693;BME280;68218;51.012;-1.648;2023-05-24T04:21:29;101688.66;;;10.15;74.95
52693;BME280;68218;51.012;-1.648;2023-05-24T04:23:56;101692.84;;;10.10;74.72
52693;BME280;68218;51.012;-1.648;2023-05-24T04:26:23;101682.97;;;10.04;74.26
52693;BME280;68218;51.012;-1.648;2023-05-24T04:28:48;101688.72;;;10.08;73.98
52693;BME280;68218;51.012;-1.648;2023-05-24T04:31:13;101689.31;;;10.10;73.65
52693;BME280;68218;51.012;-1.648;2023-05-24T04:33:40;101694.81;;;10.22;73.09
52693;BME280;68218;51.012;-1.648;2023-05-24T04:36:06;101683.19;;;10.21;72.75
52693;BME280;68218;51.012;-1.648;2023-05-24T04:38:32;101677.19;;;10.19;72.48
52693;BME280;68218;51.012;-1.648;2023-05-24T04:41:00;101677.97;;;10.26;72.21
52693;BME280;68218;51.012;-1.648;2023-05-24T04:43:26;101677.72;;;10.28;72.16
52693;BME280;68218;51.012;-1.648;2023-05-24T04:45:52;101675.63;;;10.30;72.19
52693;BME280;68218;51.012;-1.648;2023-05-24T04:48:19;101680.84;;;10.32;72.43
52693;BME280;68218;51.012;-1.648;2023-05-24T04:50:46;101681.94;;;10.42;73.86
52693;BME280;68218;51.012;-1.648;2023-05-24T04:53:12;101688.44;;;10.35;72.45
52693;BME280;68218;51.012;-1.648;2023-05-24T04:55:38;101692.69;;;10.24;72.50
52693;BME280;68218;51.012;-1.648;2023-05-24T04:58:04;101687.91;;;10.26;72.95
52693;BME280;68218;51.012;-1.648;2023-05-24T05:00:29;101689.06;;;10.37;72.88
52693;BME280;68218;51.012;-1.648;2023-05-24T05:02:55;101690.13;;;10.36;73.04
52693;BME280;68218;51.012;-1.648;2023-05-24T05:05:21;101687.41;;;10.36;73.42
52693;BME280;68218;51.012;-1.648;2023-05-24T05:07:46;101692.06;;;10.47;73.31
52693;BME280;68218;51.012;-1.648;2023-05-24T05:10:12;101693.41;;;10.56;73.14
52693;BME280;68218;51.012;-1.648;2023-05-24T05:12:37;101693.19;;;10.58;73.31
52693;BME280;68218;51.012;-1.648;2023-05-24T05:15:03;101692.72;;;10.61;73.18
52693;BME280;68218;51.012;-1.648;2023-05-24T05:17:29;101697.66;;;10.64;73.17
52693;BME280;68218;51.012;-1.648;2023-05-24T05:19:54;101689.91;;;10.67;73.16
52693;BME280;68218;51.012;-1.648;2023-05-24T05:22:19;101704.63;;;10.72;73.04
52693;BME280;68218;51.012;-1.648;2023-05-24T05:24:45;101692.75;;;10.73;72.84
52693;BME280;68218;51.012;-1.648;2023-05-24T05:27:10;101681.75;;;10.74;72.91
52693;BME280;68218;51.012;-1.648;2023-05-24T05:29:36;101686.59;;;10.84;73.20
52693;BME280;68218;51.012;-1.648;2023-05-24T05:32:01;101694.34;;;10.80;72.99
52693;BME280;68218;51.012;-1.648;2023-05-24T05:34:27;101698.97;;;10.92;73.71
52693;BME280;68218;51.012;-1.648;2023-05-24T05:36:52;101693.97;;;11.07;73.87
52693;BME280;68218;51.012;-1.648;2023-05-24T05:39:17;101691.66;;;11.11;74.12
52693;BME280;68218;51.012;-1.648;2023-05-24T05:41:43;101692.69;;;11.10;73.26
52693;BME280;68218;51.012;-1.648;2023-05-24T05:44:10;101698.81;;;11.17;72.60
52693;BME280;68218;51.012;-1.648;2023-05-24T05:46:37;101694.38;;;11.22;73.45
52693;BME280;68218;51.012;-1.648;2023-05-24T05:49:02;101697.09;;;11.34;73.31
52693;BME280;68218;51.012;-1.648;2023-05-24T05:51:28;101701.25;;;11.49;73.54
52693;BME280;68218;51.012;-1.648;2023-05-24T05:53:53;101707.34;;;11.56;72.35
52693;BME280;68218;51.012;-1.648;2023-05-24T05:56:18;101703.84;;;11.55;72.56
52693;BME280;68218;51.012;-1.648;2023-05-24T05:58:44;101698.09;;;11.64;73.35
52693;BME280;68218;51.012;-1.648;2023-05-24T06:01:09;101700.31;;;11.67;74.70
52693;BME280;68218;51.012;-1.648;2023-05-24T06:03:35;101704.34;;;11.76;74.34
52693;BME280;68218;51.012;-1.648;2023-05-24T06:06:00;101698.22;;;11.80;75.04
52693;BME280;68218;51.012;-1.648;2023-05-24T06:08:26;101685.88;;;11.85;75.17
52693;BME280;68218;51.012;-1.648;2023-05-24T06:10:51;101699.09;;;11.93;74.18
52693;BME280;68218;51.012;-1.648;2023-05-24T06:13:17;101700.72;;;11.94;74.38
52693;BME280;68218;51.012;-1.648;2023-05-24T06:15:42;101695.88;;;11.84;72.05
52693;BME280;68218;51.012;-1.648;2023-05-24T06:18:07;101692.72;;;11.99;73.32
52693;BME280;68218;51.012;-1.648;2023-05-24T06:20:33;101698.94;;;11.88;70.46
52693;BME280;68218;51.012;-1.648;2023-05-24T06:22:58;101698.81;;;12.06;72.22
52693;BME280;68218;51.012;-1.648;2023-05-24T06:25:24;101692.34;;;12.19;71.85
52693;BME280;68218;51.012;-1.648;2023-05-24T06:27:51;101692.22;;;12.26;71.34
52693;BME280;68218;51.012;-1.648;2023-05-24T06:30:17;101694.25;;;12.18;70.52
52693;BME280;68218;51.012;-1.648;2023-05-24T06:32:42;101687.19;;;12.17;70.48
52693;BME280;68218;51.012;-1.648;2023-05-24T06:35:08;101686.59;;;12.15;69.92
52693;BME280;68218;51.012;-1.648;2023-05-24T06:37:34;101693.03;;;12.38;72.24
52693;BME280;68218;51.012;-1.648;2023-05-24T06:40:00;101694.56;;;12.34;69.22
52693;BME280;68218;51.012;-1.648;2023-05-24T06:42:25;101698.06;;;12.46;69.12
52693;BME280;68218;51.012;-1.648;2023-05-24T06:44:51;101694.28;;;12.47;69.08
52693;BME280;68218;51.012;-1.648;2023-05-24T06:47:16;101700.13;;;12.68;72.06
52693;BME280;68218;51.012;-1.648;2023-05-24T06:49:42;101700.22;;;12.73;69.25
52693;BME280;68218;51.012;-1.648;2023-05-24T06:52:07;101698.97;;;12.92;69.20
52693;BME280;68218;51.012;-1.648;2023-05-24T06:54:33;101700.81;;;13.04;68.21
52693;BME280;68218;51.012;-1.648;2023-05-24T06:56:58;101703.03;;;13.07;68.57
52693;BME280;68218;51.012;-1.648;2023-05-24T06:59:24;101708.16;;;13.20;67.64
52693;BME280;68218;51.012;-1.648;2023-05-24T07:01:49;101702.94;;;13.02;68.48
52693;BME280;68218;51.012;-1.648;2023-05-24T07:04:21;101700.69;;;13.27;67.34
52693;BME280;68218;51.012;-1.648;2023-05-24T07:06:46;101698.34;;;13.48;68.24
52693;BME280;68218;51.012;-1.648;2023-05-24T07:09:12;101698.66;;;13.85;69.37
52693;BME280;68218;51.012;-1.648;2023-05-24T07:11:39;101703.50;;;14.00;65.48
52693;BME280;68218;51.012;-1.648;2023-05-24T07:14:05;101716.34;;;14.27;65.66
52693;BME280;68218;51.012;-1.648;2023-05-24T07:16:30;101709.31;;;14.48;64.50
52693;BME280;68218;51.012;-1.648;2023-05-24T07:18:56;101712.50;;;14.62;64.02
52693;BME280;68218;51.012;-1.648;2023-05-24T07:21:22;101722.50;;;14.61;62.98
52693;BME280;68218;51.012;-1.648;2023-05-24T07:23:50;101715.13;;;14.57;64.55
52693;BME280;68218;51.012;-1.648;2023-05-24T07:26:15;101718.19;;;15.10;63.74
52693;BME280;68218;51.012;-1.648;2023-05-24T07:28:41;101721.09;;;15.30;63.64
52693;BME280;68218;51.012;-1.648;2023-05-24T07:31:10;101734.78;;;15.13;62.09
52693;BME280;68218;51.012;-1.648;2023-05-24T07:33:36;101729.06;;;15.10;62.91
52693;BME280;68218;51.012;-1.648;2023-05-24T07:36:05;101732.88;;;14.87;63.43
52693;BME280;68218;51.012;-1.648;2023-05-24T07:38:30;101732.00;;;14.59;64.28
52693;BME280;68218;51.012;-1.648;2023-05-24T07:41:00;101731.47;;;15.06;63.48
52693;BME280;68218;51.012;-1.648;2023-05-24T07:43:26;101727.91;;;15.33;62.39
52693;BME280;68218;51.012;-1.648;2023-05-24T07:45:52;101728.47;;;15.67;62.11
52693;BME280;68218;51.012;-1.648;2023-05-24T07:48:19;101729.84;;;15.38;62.04
52693;BME280;68218;51.012;-1.648;2023-05-24T07:50:45;101718.31;;;15.52;60.88
52693;BME280;68218;51.012;-1.648;2023-05-24T07:53:13;101718.53;;;15.46;61.51
52693;BME280;68218;51.012;-1.648;2023-05-24T07:55:39;101718.16;;;15.69;60.77
52693;BME280;68218;51.012;-1.648;2023-05-24T07:58:06;101727.25;;;15.80;59.59
52693;BME280;68218;51.012;-1.648;2023-05-24T08:00:32;101735.78;;;15.62;59.69
52693;BME280;68218;51.012;-1.648;2023-05-24T08:02:58;101729.53;;;15.61;59.59
52693;BME280;68218;51.012;-1.648;2023-05-24T08:05:24;101732.88;;;15.73;60.29
52693;BME280;68218;51.012;-1.648;2023-05-24T08:07:50;101724.16;;;15.71;59.99
52693;BME280;68218;51.012;-1.648;2023-05-24T08:10:16;101721.03;;;15.90;59.59
52693;BME280;68218;51.012;-1.648;2023-05-24T08:12:41;101726.50;;;16.38;58.34
52693;BME280;68218;51.012;-1.648;2023-05-24T08:15:07;101720.31;;;16.53;58.90
52693;BME280;68218;51.012;-1.648;2023-05-24T08:17:32;101717.06;;;16.56;57.08
52693;BME280;68218;51.012;-1.648;2023-05-24T08:19:58;101716.16;;;16.40;56.62
52693;BME280;68218;51.012;-1.648;2023-05-24T08:22:23;101720.94;;;16.17;57.64
52693;BME280;68218;51.012;-1.648;2023-05-24T08:24:49;101708.91;;;16.61;56.44
52693;BME280;68218;51.012;-1.648;2023-05-24T08:27:14;101707.84;;;16.72;55.85
52693;BME280;68218;51.012;-1.648;2023-05-24T08:29:40;101699.50;;;16.99;54.86
52693;BME280;68218;51.012;-1.648;2023-05-24T08:32:06;101696.53;;;17.21;55.06
52693;BME280;68218;51.012;-1.648;2023-05-24T08:34:35;101693.50;;;18.05;55.21
52693;BME280;68218;51.012;-1.648;2023-05-24T08:37:01;101696.78;;;16.99;54.40
52693;BME280;68218;51.012;-1.648;2023-05-24T08:39:26;101703.88;;;17.11;55.68
52693;BME280;68218;51.012;-1.648;2023-05-24T08:41:51;101694.94;;;17.41;54.86
52693;BME280;68218;51.012;-1.648;2023-05-24T08:44:17;101702.78;;;18.04;52.97
52693;BME280;68218;51.012;-1.648;2023-05-24T08:46:45;101693.25;;;18.67;53.02
52693;BME280;68218;51.012;-1.648;2023-05-24T08:49:11;101696.75;;;18.07;53.87
52693;BME280;68218;51.012;-1.648;2023-05-24T08:51:37;101701.38;;;18.17;53.10
52693;BME280;68218;51.012;-1.648;2023-05-24T08:54:04;101696.72;;;18.18;52.41
52693;BME280;68218;51.012;-1.648;2023-05-24T08:56:29;101690.59;;;18.51;52.59
52693;BME280;68218;51.012;-1.648;2023-05-24T08:58:55;101694.84;;;18.18;52.11
52693;BME280;68218;51.012;-1.648;2023-05-24T09:01:23;101691.31;;;18.07;51.90
52693;BME280;68218;51.012;-1.648;2023-05-24T09:03:49;101679.63;;;17.91;52.11
52693;BME280;68218;51.012;-1.648;2023-05-24T09:06:17;101683.00;;;18.38;51.80
52693;BME280;68218;51.012;-1.648;2023-05-24T09:08:43;101681.53;;;18.66;52.00
52693;BME280;68218;51.012;-1.648;2023-05-24T09:11:10;101684.31;;;19.06;50.80
52693;BME280;68218;51.012;-1.648;2023-05-24T09:13:36;101677.63;;;18.83;50.64
52693;BME280;68218;51.012;-1.648;2023-05-24T09:16:01;101678.97;;;18.85;53.45
52693;BME280;68218;51.012;-1.648;2023-05-24T09:18:28;101682.56;;;19.20;50.21
52693;BME280;68218;51.012;-1.648;2023-05-24T09:20:53;101682.53;;;18.86;50.12
52693;BME280;68218;51.012;-1.648;2023-05-24T09:23:19;101681.78;;;19.49;51.27
52693;BME280;68218;51.012;-1.648;2023-05-24T09:25:45;101678.84;;;19.75;50.12
52693;BME280;68218;51.012;-1.648;2023-05-24T09:28:16;101685.28;;;19.55;48.21
52693;BME280;68218;51.012;-1.648;2023-05-24T09:30:56;101679.94;;;19.05;48.18
52693;BME280;68218;51.012;-1.648;2023-05-24T09:33:22;101676.25;;;19.25;47.61
52693;BME280;68218;51.012;-1.648;2023-05-24T09:35:48;101676.78;;;18.87;47.51
52693;BME280;68218;51.012;-1.648;2023-05-24T09:38:17;101665.22;;;19.35;48.12
52693;BME280;68218;51.012;-1.648;2023-05-24T09:40:43;101666.91;;;18.92;47.93
52693;BME280;68218;51.012;-1.648;2023-05-24T09:43:09;101658.47;;;18.83;49.57
52693;BME280;68218;51.012;-1.648;2023-05-24T09:45:41;101662.94;;;19.13;47.33
52693;BME280;68218;51.012;-1.648;2023-05-24T09:48:12;101666.28;;;19.00;47.92
52693;BME280;68218;51.012;-1.648;2023-05-24T09:50:38;101665.53;;;19.28;47.62
52693;BME280;68218;51.012;-1.648;2023-05-24T09:53:04;101664.75;;;20.11;47.02
52693;BME280;68218;51.012;-1.648;2023-05-24T09:55:29;101670.44;;;19.32;46.87
52693;BME280;68218;51.012;-1.648;2023-05-24T09:58:04;101667.91;;;19.06;48.02
52693;BME280;68218;51.012;-1.648;2023-05-24T10:00:33;101656.66;;;20.00;46.21
52693;BME280;68218;51.012;-1.648;2023-05-24T10:03:02;101666.56;;;19.96;46.18
52693;BME280;68218;51.012;-1.648;2023-05-24T10:05:29;101653.69;;;19.97;46.46
52693;BME280;68218;51.012;-1.648;2023-05-24T10:07:58;101655.44;;;20.55;45.30
52693;BME280;68218;51.012;-1.648;2023-05-24T10:10:28;101652.44;;;20.32;45.30
52693;BME280;68218;51.012;-1.648;2023-05-24T10:12:55;101653.44;;;20.17;47.50
52693;BME280;68218;51.012;-1.648;2023-05-24T10:15:21;101660.41;;;20.29;45.64
52693;BME280;68218;51.012;-1.648;2023-05-24T10:17:47;101661.84;;;20.26;45.90
52693;BME280;68218;51.012;-1.648;2023-05-24T10:20:12;101662.09;;;19.47;47.49
52693;BME280;68218;51.012;-1.648;2023-05-24T10:22:42;101656.59;;;20.06;47.94
52693;BME280;68218;51.012;-1.648;2023-05-24T10:25:14;101665.81;;;20.58;45.56
52693;BME280;68218;51.012;-1.648;2023-05-24T10:27:43;101653.28;;;20.09;48.43
52693;BME280;68218;51.012;-1.648;2023-05-24T10:30:14;101635.31;;;20.65;45.67
52693;BME280;68218;51.012;-1.648;2023-05-24T10:32:43;101638.06;;;20.84;46.50
52693;BME280;68218;51.012;-1.648;2023-05-24T10:35:10;101643.03;;;20.38;45.09
52693;BME280;68218;51.012;-1.648;2023-05-24T10:37:37;101634.84;;;20.14;45.90
52693;BME280;68218;51.012;-1.648;2023-05-24T10:40:03;101631.44;;;19.79;47.75
52693;BME280;68218;51.012;-1.648;2023-05-24T10:42:30;101626.38;;;20.54;46.68
52693;BME280;68218;51.012;-1.648;2023-05-24T10:44:56;101638.16;;;21.11;46.12
52693;BME280;68218;51.012;-1.648;2023-05-24T10:47:25;101634.56;;;20.16;45.75
52693;BME280;68218;51.012;-1.648;2023-05-24T10:49:56;101629.84;;;20.84;44.44
52693;BME280;68218;51.012;-1.648;2023-05-24T10:52:33;101631.06;;;20.34;45.35
52693;BME280;68218;51.012;-1.648;2023-05-24T10:55:09;101636.41;;;21.35;44.12
52693;BME280;68218;51.012;-1.648;2023-05-24T10:57:36;101639.78;;;21.78;43.01
52693;BME280;68218;51.012;-1.648;2023-05-24T11:03:09;101631.47;;;21.18;42.60
52693;BME280;68218;51.012;-1.648;2023-05-24T11:08:14;101639.09;;;20.26;45.04
52693;BME280;68218;51.012;-1.648;2023-05-24T11:10:39;101636.13;;;20.84;45.21
52693;BME280;68218;51.012;-1.648;2023-05-24T11:13:08;101630.78;;;21.26;42.59
52693;BME280;68218;51.012;-1.648;2023-05-24T11:15:34;101632.91;;;21.15;42.76
52693;BME280;68218;51.012;-1.648;2023-05-24T11:20:31;101627.16;;;21.77;41.32
52693;BME280;68218;51.012;-1.648;2023-05-24T11:22:57;101628.34;;;21.71;40.56
52693;BME280;68218;51.012;-1.648;2023-05-24T11:25:25;101631.19;;;20.43;44.19
52693;BME280;68218;51.012;-1.648;2023-05-24T11:27:50;101623.94;;;20.52;43.45
52693;BME280;68218;51.012;-1.648;2023-05-24T11:30:17;101621.31;;;21.51;44.53
52693;BME280;68218;51.012;-1.648;2023-05-24T11:32:46;101631.63;;;21.87;40.24
52693;BME280;68218;51.012;-1.648;2023-05-24T11:35:12;101616.66;;;21.19;41.51
52693;BME280;68218;51.012;-1.648;2023-05-24T11:37:38;101618.47;;;20.90;41.87
52693;BME280;68218;51.012;-1.648;2023-05-24T11:40:05;101617.91;;;21.07;41.82
52693;BME280;68218;51.012;-1.648;2023-05-24T11:42:34;101618.38;;;22.17;41.04
52693;BME280;68218;51.012;-1.648;2023-05-24T11:45:05;101619.69;;;22.47;39.21
52693;BME280;68218;51.012;-1.648;2023-05-24T11:47:34;101618.09;;;22.04;39.54
52693;BME280;68218;51.012;-1.648;2023-05-24T11:50:01;101622.47;;;21.92;40.95
52693;BME280;68218;51.012;-1.648;2023-05-24T11:52:27;101635.03;;;22.62;38.38
52693;BME280;68218;51.012;-1.648;2023-05-24T11:54:53;101620.13;;;21.38;40.41
52693;BME280;68218;51.012;-1.648;2023-05-24T11:57:24;101623.38;;;21.40;40.17
52693;BME280;68218;51.012;-1.648;2023-05-24T11:59:51;101621.84;;;21.95;39.48
52693;BME280;68218;51.012;-1.648;2023-05-24T12:02:17;101609.22;;;22.35;37.35
52693;BME280;68218;51.012;-1.648;2023-05-24T12:04:43;101605.22;;;22.78;38.43
52693;BME280;68218;51.012;-1.648;2023-05-24T12:07:10;101601.38;;;24.04;35.06
52693;BME280;68218;51.012;-1.648;2023-05-24T12:09:36;101612.59;;;23.77;37.09
52693;BME280;68218;51.012;-1.648;2023-05-24T12:12:02;101619.41;;;22.35;38.18
52693;BME280;68218;51.012;-1.648;2023-05-24T12:14:29;101607.41;;;23.75;35.92
52693;BME280;68218;51.012;-1.648;2023-05-24T12:16:57;101605.66;;;23.39;37.00
52693;BME280;68218;51.012;-1.648;2023-05-24T12:19:24;101607.41;;;22.67;37.32
52693;BME280;68218;51.012;-1.648;2023-05-24T12:21:55;101601.09;;;22.89;37.35
52693;BME280;68218;51.012;-1.648;2023-05-24T12:24:22;101610.28;;;22.85;37.71
52693;BME280;68218;51.012;-1.648;2023-05-24T12:26:48;101606.28;;;23.76;37.10
52693;BME280;68218;51.012;-1.648;2023-05-24T12:29:14;101607.56;;;22.20;36.97
52693;BME280;68218;51.012;-1.648;2023-05-24T12:31:41;101591.06;;;23.38;37.92
52693;BME280;68218;51.012;-1.648;2023-05-24T12:34:11;101596.13;;;22.55;37.36
52693;BME280;68218;51.012;-1.648;2023-05-24T12:36:37;101600.38;;;21.55;38.53
52693;BME280;68218;51.012;-1.648;2023-05-24T12:39:29;101597.56;;;22.52;36.90
52693;BME280;68218;51.012;-1.648;2023-05-24T12:41:59;101586.56;;;22.97;38.19
52693;BME280;68218;51.012;-1.648;2023-05-24T12:44:36;101578.94;;;22.72;36.85
52693;BME280;68218;51.012;-1.648;2023-05-24T12:47:03;101587.88;;;21.91;38.18
52693;BME280;68218;51.012;-1.648;2023-05-24T12:49:30;101582.16;;;22.88;37.49
52693;BME280;68218;51.012;-1.648;2023-05-24T12:51:56;101569.59;;;23.49;35.19
52693;BME280;68218;51.012;-1.648;2023-05-24T12:54:23;101571.78;;;23.38;35.77